Terminal Aerodrome Forecast
Issued by NWS Sterling, VA

Current Version | Previous Version | Text Only | Print | Product List | Glossary Off
Versions: 1 2 3 4 5 6 7 8 9 10 11 12 13 14 15 16 17 18 19 20 21 22 23 24 25 26

000
FTUS41 KLWX 170536
TAFDCA
TAF
KDCA 170536Z 1706/1806 00000KT P6SM FEW090
     FM171200 05004KT 3SM BR BKN008
     FM171400 06005KT 3SM BR BKN010
     FM171500 06005KT P6SM BKN020
     FM171700 07005KT P6SM SCT035
     FM180400 08004KT P6SM FEW150=

USA.gov is the U.S. government's official web portal to all federal, state and local government web resources and services.